sensor_id;sensor_type;location;lat;lon;timestamp;temperature;humidity
66726;HTU21D;53638;51.062;5.804;2023-12-20T00:01:04;8.55;118.99
66726;HTU21D;53638;51.062;5.804;2023-12-20T00:03:29;8.44;118.99
66726;HTU21D;53638;51.062;5.804;2023-12-20T00:05:56;8.31;118.99
66726;HTU21D;53638;51.062;5.804;2023-12-20T00:08:22;8.33;118.99
66726;HTU21D;53638;51.062;5.804;2023-12-20T00:10:48;8.34;118.99
66726;HTU21D;53638;51.062;5.804;2023-12-20T00:13:13;8.37;118.99
66726;HTU21D;53638;51.062;5.804;2023-12-20T00:15:40;8.42;118.99
66726;HTU21D;53638;51.062;5.804;2023-12-20T00:18:08;8.46;118.99
66726;HTU21D;53638;51.062;5.804;2023-12-20T00:20:34;8.46;118.99
66726;HTU21D;53638;51.062;5.804;2023-12-20T00:23:01;8.37;118.99
66726;HTU21D;53638;51.062;5.804;2023-12-20T00:25:28;8.23;118.99
66726;HTU21D;53638;51.062;5.804;2023-12-20T00:27:56;8.05;118.99
66726;HTU21D;53638;51.062;5.804;2023-12-20T00:30:23;7.87;118.99
66726;HTU21D;53638;51.062;5.804;2023-12-20T00:32:48;7.72;118.99
66726;HTU21D;53638;51.062;5.804;2023-12-20T00:35:15;7.58;118.99
66726;HTU21D;53638;51.062;5.804;2023-12-20T00:37:42;7.46;118.99
66726;HTU21D;53638;51.062;5.804;2023-12-20T00:40:09;7.35;118.99
66726;HTU21D;53638;51.062;5.804;2023-12-20T00:42:35;7.27;118.99
66726;HTU21D;53638;51.062;5.804;2023-12-20T00:45:06;7.24;118.99
66726;HTU21D;53638;51.062;5.804;2023-12-20T00:47:32;7.14;118.99
66726;HTU21D;53638;51.062;5.804;2023-12-20T00:49:58;7.11;118.99
66726;HTU21D;53638;51.062;5.804;2023-12-20T00:52:24;7.02;118.99
66726;HTU21D;53638;51.062;5.804;2023-12-20T00:54:51;7.03;118.99
66726;HTU21D;53638;51.062;5.804;2023-12-20T00:57:17;7.10;118.99
66726;HTU21D;53638;51.062;5.804;2023-12-20T00:59:43;7.07;118.99
66726;HTU21D;53638;51.062;5.804;2023-12-20T01:02:09;7.14;118.99
66726;HTU21D;53638;51.062;5.804;2023-12-20T01:04:35;7.15;118.99
66726;HTU21D;53638;51.062;5.804;2023-12-20T01:07:10;7.17;118.99
66726;HTU21D;53638;51.062;5.804;2023-12-20T01:09:36;7.20;118.99
66726;HTU21D;53638;51.062;5.804;2023-12-20T01:12:02;7.17;118.99
66726;HTU21D;53638;51.062;5.804;2023-12-20T01:14:28;7.14;118.99
66726;HTU21D;53638;51.062;5.804;2023-12-20T01:16:54;7.15;118.99
66726;HTU21D;53638;51.062;5.804;2023-12-20T01:19:24;7.15;118.99
66726;HTU21D;53638;51.062;5.804;2023-12-20T01:21:50;7.12;118.99
66726;HTU21D;53638;51.062;5.804;2023-12-20T01:24:16;7.10;118.99
66726;HTU21D;53638;51.062;5.804;2023-12-20T01:26:42;7.04;118.99
66726;HTU21D;53638;51.062;5.804;2023-12-20T01:29:08;7.01;118.99
66726;HTU21D;53638;51.062;5.804;2023-12-20T01:31:34;6.94;118.99
66726;HTU21D;53638;51.062;5.804;2023-12-20T01:34:00;6.91;118.99
66726;HTU21D;53638;51.062;5.804;2023-12-20T01:36:26;6.83;118.99
66726;HTU21D;53638;51.062;5.804;2023-12-20T01:38:55;6.81;118.99
66726;HTU21D;53638;51.062;5.804;2023-12-20T01:41:21;6.76;118.99
66726;HTU21D;53638;51.062;5.804;2023-12-20T01:43:47;6.76;118.99
66726;HTU21D;53638;51.062;5.804;2023-12-20T01:46:13;6.63;118.99
66726;HTU21D;53638;51.062;5.804;2023-12-20T01:48:40;6.56;118.99
66726;HTU21D;53638;51.062;5.804;2023-12-20T01:51:06;6.53;118.99
66726;HTU21D;53638;51.062;5.804;2023-12-20T01:53:38;6.38;118.99
66726;HTU21D;53638;51.062;5.804;2023-12-20T01:56:08;6.35;118.99
66726;HTU21D;53638;51.062;5.804;2023-12-20T01:58:42;6.36;118.99
66726;HTU21D;53638;51.062;5.804;2023-12-20T02:01:10;6.33;118.99
66726;HTU21D;53638;51.062;5.804;2023-12-20T02:04:01;6.29;118.99
66726;HTU21D;53638;51.062;5.804;2023-12-20T02:06:30;6.13;118.99
66726;HTU21D;53638;51.062;5.804;2023-12-20T02:08:57;6.13;118.99
66726;HTU21D;53638;51.062;5.804;2023-12-20T02:11:25;6.14;118.99
66726;HTU21D;53638;51.062;5.804;2023-12-20T02:13:51;6.24;118.99
66726;HTU21D;53638;51.062;5.804;2023-12-20T02:16:17;6.26;118.99
66726;HTU21D;53638;51.062;5.804;2023-12-20T02:18:44;6.19;118.99
66726;HTU21D;53638;51.062;5.804;2023-12-20T02:21:10;6.24;118.99
66726;HTU21D;53638;51.062;5.804;2023-12-20T02:23:36;6.35;118.99
66726;HTU21D;53638;51.062;5.804;2023-12-20T02:26:04;6.36;118.99
66726;HTU21D;53638;51.062;5.804;2023-12-20T02:28:31;6.36;118.99
66726;HTU21D;53638;51.062;5.804;2023-12-20T02:30:57;6.22;118.99
66726;HTU21D;53638;51.062;5.804;2023-12-20T02:33:23;6.45;118.99
66726;HTU21D;53638;51.062;5.804;2023-12-20T02:35:49;6.41;118.99
66726;HTU21D;53638;51.062;5.804;2023-12-20T02:38:16;6.28;118.99
66726;HTU21D;53638;51.062;5.804;2023-12-20T02:40:42;6.34;118.99
66726;HTU21D;53638;51.062;5.804;2023-12-20T02:43:07;6.37;118.99
66726;HTU21D;53638;51.062;5.804;2023-12-20T02:45:33;6.34;118.99
66726;HTU21D;53638;51.062;5.804;2023-12-20T02:48:00;6.29;118.99
66726;HTU21D;53638;51.062;5.804;2023-12-20T02:50:25;6.37;118.99
66726;HTU21D;53638;51.062;5.804;2023-12-20T02:52:51;6.39;118.99
66726;HTU21D;53638;51.062;5.804;2023-12-20T02:55:17;6.24;118.99
66726;HTU21D;53638;51.062;5.804;2023-12-20T02:57:43;6.27;118.99
66726;HTU21D;53638;51.062;5.804;2023-12-20T03:00:09;6.19;118.99
66726;HTU21D;53638;51.062;5.804;2023-12-20T03:02:36;6.37;118.99
66726;HTU21D;53638;51.062;5.804;2023-12-20T03:05:03;6.11;118.99
66726;HTU21D;53638;51.062;5.804;2023-12-20T03:07:29;6.17;118.99
66726;HTU21D;53638;51.062;5.804;2023-12-20T03:09:55;6.01;118.99
66726;HTU21D;53638;51.062;5.804;2023-12-20T03:12:21;5.96;118.99
66726;HTU21D;53638;51.062;5.804;2023-12-20T03:14:48;5.91;118.99
66726;HTU21D;53638;51.062;5.804;2023-12-20T03:17:14;5.91;118.99
66726;HTU21D;53638;51.062;5.804;2023-12-20T03:19:39;5.93;118.99
66726;HTU21D;53638;51.062;5.804;2023-12-20T03:22:05;5.79;118.99
66726;HTU21D;53638;51.062;5.804;2023-12-20T03:24:31;5.94;118.99
66726;HTU21D;53638;51.062;5.804;2023-12-20T03:26:57;6.13;118.99
66726;HTU21D;53638;51.062;5.804;2023-12-20T03:29:23;6.23;118.99
66726;HTU21D;53638;51.062;5.804;2023-12-20T03:31:52;6.09;118.99
66726;HTU21D;53638;51.062;5.804;2023-12-20T03:34:43;6.10;118.99
66726;HTU21D;53638;51.062;5.804;2023-12-20T03:37:09;6.11;118.99
66726;HTU21D;53638;51.062;5.804;2023-12-20T03:39:37;5.95;118.99
66726;HTU21D;53638;51.062;5.804;2023-12-20T03:42:06;5.81;118.99
66726;HTU21D;53638;51.062;5.804;2023-12-20T03:45:01;5.70;118.99
66726;HTU21D;53638;51.062;5.804;2023-12-20T03:47:27;5.74;118.99
66726;HTU21D;53638;51.062;5.804;2023-12-20T03:49:53;5.64;118.99
66726;HTU21D;53638;51.062;5.804;2023-12-20T03:52:19;5.75;118.99
66726;HTU21D;53638;51.062;5.804;2023-12-20T03:54:45;5.65;118.99
66726;HTU21D;53638;51.062;5.804;2023-12-20T03:57:16;5.60;118.99
66726;HTU21D;53638;51.062;5.804;2023-12-20T03:59:44;5.53;118.99
66726;HTU21D;53638;51.062;5.804;2023-12-20T04:02:10;5.56;118.99
66726;HTU21D;53638;51.062;5.804;2023-12-20T04:04:37;5.56;118.99
66726;HTU21D;53638;51.062;5.804;2023-12-20T04:07:03;5.59;118.99
66726;HTU21D;53638;51.062;5.804;2023-12-20T04:09:35;5.56;118.99
66726;HTU21D;53638;51.062;5.804;2023-12-20T04:12:01;5.64;118.99
66726;HTU21D;53638;51.062;5.804;2023-12-20T04:14:27;5.60;118.99
66726;HTU21D;53638;51.062;5.804;2023-12-20T04:16:53;5.52;118.99
66726;HTU21D;53638;51.062;5.804;2023-12-20T04:19:19;5.61;118.99
66726;HTU21D;53638;51.062;5.804;2023-12-20T04:21:45;5.63;118.99
66726;HTU21D;53638;51.062;5.804;2023-12-20T04:24:11;5.68;118.99
66726;HTU21D;53638;51.062;5.804;2023-12-20T04:26:37;5.72;118.99
66726;HTU21D;53638;51.062;5.804;2023-12-20T04:29:03;5.68;118.99
66726;HTU21D;53638;51.062;5.804;2023-12-20T04:31:29;5.70;118.99
66726;HTU21D;53638;51.062;5.804;2023-12-20T04:33:55;5.72;118.99
66726;HTU21D;53638;51.062;5.804;2023-12-20T04:36:21;5.71;118.99
66726;HTU21D;53638;51.062;5.804;2023-12-20T04:38:47;5.76;118.99
66726;HTU21D;53638;51.062;5.804;2023-12-20T04:41:13;5.80;118.99
66726;HTU21D;53638;51.062;5.804;2023-12-20T04:43:41;5.80;118.99
66726;HTU21D;53638;51.062;5.804;2023-12-20T04:46:07;5.81;118.99
66726;HTU21D;53638;51.062;5.804;2023-12-20T04:48:33;5.82;118.99
66726;HTU21D;53638;51.062;5.804;2023-12-20T04:50:59;5.81;118.99
66726;HTU21D;53638;51.062;5.804;2023-12-20T04:53:25;5.80;118.99
66726;HTU21D;53638;51.062;5.804;2023-12-20T04:55:51;5.81;118.99
66726;HTU21D;53638;51.062;5.804;2023-12-20T04:58:17;5.90;118.99
66726;HTU21D;53638;51.062;5.804;2023-12-20T05:00:43;5.92;118.99
66726;HTU21D;53638;51.062;5.804;2023-12-20T05:03:09;5.94;118.99
66726;HTU21D;53638;51.062;5.804;2023-12-20T05:05:35;5.85;118.99
66726;HTU21D;53638;51.062;5.804;2023-12-20T05:08:04;5.86;118.99
66726;HTU21D;53638;51.062;5.804;2023-12-20T05:10:31;5.90;118.99
66726;HTU21D;53638;51.062;5.804;2023-12-20T05:12:57;5.94;118.99
66726;HTU21D;53638;51.062;5.804;2023-12-20T05:15:23;5.90;118.99
66726;HTU21D;53638;51.062;5.804;2023-12-20T05:17:48;5.95;118.99
66726;HTU21D;53638;51.062;5.804;2023-12-20T05:20:14;5.94;118.99
66726;HTU21D;53638;51.062;5.804;2023-12-20T05:22:41;5.93;118.99
66726;HTU21D;53638;51.062;5.804;2023-12-20T05:25:07;5.91;118.99
66726;HTU21D;53638;51.062;5.804;2023-12-20T05:27:33;5.85;118.99
66726;HTU21D;53638;51.062;5.804;2023-12-20T05:29:59;5.87;118.99
66726;HTU21D;53638;51.062;5.804;2023-12-20T05:32:25;5.84;118.99
66726;HTU21D;53638;51.062;5.804;2023-12-20T05:34:51;5.83;118.99
66726;HTU21D;53638;51.062;5.804;2023-12-20T05:37:17;5.80;118.99
66726;HTU21D;53638;51.062;5.804;2023-12-20T05:39:43;5.79;118.99
66726;HTU21D;53638;51.062;5.804;2023-12-20T05:42:09;5.68;118.99
66726;HTU21D;53638;51.062;5.804;2023-12-20T05:44:35;5.71;118.99
66726;HTU21D;53638;51.062;5.804;2023-12-20T05:47:05;5.90;118.99
66726;HTU21D;53638;51.062;5.804;2023-12-20T05:49:33;5.89;118.99
66726;HTU21D;53638;51.062;5.804;2023-12-20T05:52:01;5.91;118.99
66726;HTU21D;53638;51.062;5.804;2023-12-20T05:54:27;5.98;118.99
66726;HTU21D;53638;51.062;5.804;2023-12-20T05:56:53;6.07;118.99
66726;HTU21D;53638;51.062;5.804;2023-12-20T05:59:19;5.98;118.99
66726;HTU21D;53638;51.062;5.804;2023-12-20T06:01:45;6.09;118.99
66726;HTU21D;53638;51.062;5.804;2023-12-20T06:04:11;5.98;118.99
66726;HTU21D;53638;51.062;5.804;2023-12-20T06:06:42;6.02;118.99
66726;HTU21D;53638;51.062;5.804;2023-12-20T06:09:08;6.06;118.99
66726;HTU21D;53638;51.062;5.804;2023-12-20T06:11:34;6.11;118.99
66726;HTU21D;53638;51.062;5.804;2023-12-20T06:14:00;5.94;118.99
66726;HTU21D;53638;51.062;5.804;2023-12-20T06:16:26;5.84;118.99
66726;HTU21D;53638;51.062;5.804;2023-12-20T06:18:56;5.84;118.99
66726;HTU21D;53638;51.062;5.804;2023-12-20T06:21:21;5.84;118.99
66726;HTU21D;53638;51.062;5.804;2023-12-20T06:23:47;5.77;118.99
66726;HTU21D;53638;51.062;5.804;2023-12-20T06:26:13;5.77;118.99
66726;HTU21D;53638;51.062;5.804;2023-12-20T06:28:39;5.80;118.99
66726;HTU21D;53638;51.062;5.804;2023-12-20T06:31:05;5.80;118.99
66726;HTU21D;53638;51.062;5.804;2023-12-20T06:33:31;5.74;118.99
66726;HTU21D;53638;51.062;5.804;2023-12-20T06:35:57;5.71;118.99
66726;HTU21D;53638;51.062;5.804;2023-12-20T06:38:23;5.78;118.99
66726;HTU21D;53638;51.062;5.804;2023-12-20T06:40:49;5.77;118.99
66726;HTU21D;53638;51.062;5.804;2023-12-20T06:43:15;5.77;118.99
66726;HTU21D;53638;51.062;5.804;2023-12-20T06:45:41;5.72;118.99
66726;HTU21D;53638;51.062;5.804;2023-12-20T06:48:07;5.78;118.99
66726;HTU21D;53638;51.062;5.804;2023-12-20T06:50:33;5.78;118.99
66726;HTU21D;53638;51.062;5.804;2023-12-20T06:52:59;5.83;118.99
66726;HTU21D;53638;51.062;5.804;2023-12-20T06:55:25;5.93;118.99
66726;HTU21D;53638;51.062;5.804;2023-12-20T06:57:51;5.87;118.99
66726;HTU21D;53638;51.062;5.804;2023-12-20T07:00:20;5.75;118.99
66726;HTU21D;53638;51.062;5.804;2023-12-20T07:02:46;5.77;118.99
66726;HTU21D;53638;51.062;5.804;2023-12-20T07:05:16;5.75;118.99
66726;HTU21D;53638;51.062;5.804;2023-12-20T07:07:42;5.83;118.99
66726;HTU21D;53638;51.062;5.804;2023-12-20T07:10:08;5.70;118.99
66726;HTU21D;53638;51.062;5.804;2023-12-20T07:12:34;5.67;118.99
66726;HTU21D;53638;51.062;5.804;2023-12-20T07:15:01;5.76;118.99
66726;HTU21D;53638;51.062;5.804;2023-12-20T07:17:38;5.71;118.99
66726;HTU21D;53638;51.062;5.804;2023-12-20T07:20:06;5.68;118.99
66726;HTU21D;53638;51.062;5.804;2023-12-20T07:22:38;5.62;118.99
66726;HTU21D;53638;51.062;5.804;2023-12-20T07:25:05;5.65;118.99
66726;HTU21D;53638;51.062;5.804;2023-12-20T07:27:31;5.52;118.99
66726;HTU21D;53638;51.062;5.804;2023-12-20T07:29:57;5.54;118.99
66726;HTU21D;53638;51.062;5.804;2023-12-20T07:32:23;5.53;118.99
66726;HTU21D;53638;51.062;5.804;2023-12-20T07:34:49;5.53;118.99
66726;HTU21D;53638;51.062;5.804;2023-12-20T07:37:21;5.56;118.99
66726;HTU21D;53638;51.062;5.804;2023-12-20T07:39:47;5.39;118.99
66726;HTU21D;53638;51.062;5.804;2023-12-20T07:42:13;5.41;118.99
66726;HTU21D;53638;51.062;5.804;2023-12-20T07:44:39;5.37;118.99
66726;HTU21D;53638;51.062;5.804;2023-12-20T07:47:05;5.45;118.99
66726;HTU21D;53638;51.062;5.804;2023-12-20T07:49:31;5.49;118.99
66726;HTU21D;53638;51.062;5.804;2023-12-20T07:51:57;5.55;118.99
66726;HTU21D;53638;51.062;5.804;2023-12-20T07:54:23;5.63;118.99
66726;HTU21D;53638;51.062;5.804;2023-12-20T07:56:49;5.53;118.99
66726;HTU21D;53638;51.062;5.804;2023-12-20T07:59:15;5.66;118.99
66726;HTU21D;53638;51.062;5.804;2023-12-20T08:01:51;5.55;118.99
66726;HTU21D;53638;51.062;5.804;2023-12-20T08:04:23;5.63;118.99
66726;HTU21D;53638;51.062;5.804;2023-12-20T08:06:50;5.59;118.99
66726;HTU21D;53638;51.062;5.804;2023-12-20T08:09:16;5.65;118.99
66726;HTU21D;53638;51.062;5.804;2023-12-20T08:11:46;5.74;118.99
66726;HTU21D;53638;51.062;5.804;2023-12-20T08:14:15;5.68;118.99
66726;HTU21D;53638;51.062;5.804;2023-12-20T08:17:05;5.63;118.99
66726;HTU21D;53638;51.062;5.804;2023-12-20T08:20:02;5.70;118.99
66726;HTU21D;53638;51.062;5.804;2023-12-20T08:22:31;5.65;118.99
66726;HTU21D;53638;51.062;5.804;2023-12-20T08:24:57;5.55;118.99
66726;HTU21D;53638;51.062;5.804;2023-12-20T08:27:23;5.62;118.99
66726;HTU21D;53638;51.062;5.804;2023-12-20T08:29:51;5.72;118.99
66726;HTU21D;53638;51.062;5.804;2023-12-20T08:32:17;5.76;118.99
66726;HTU21D;53638;51.062;5.804;2023-12-20T08:34:43;5.85;118.99
66726;HTU21D;53638;51.062;5.804;2023-12-20T08:37:09;5.82;118.99
66726;HTU21D;53638;51.062;5.804;2023-12-20T08:39:43;5.71;118.99
66726;HTU21D;53638;51.062;5.804;2023-12-20T08:42:09;5.84;118.99
66726;HTU21D;53638;51.062;5.804;2023-12-20T08:44:38;5.87;118.99
66726;HTU21D;53638;51.062;5.804;2023-12-20T08:47:09;5.80;118.99
66726;HTU21D;53638;51.062;5.804;2023-12-20T08:49:39;5.92;118.99
66726;HTU21D;53638;51.062;5.804;2023-12-20T08:52:05;5.78;118.99
66726;HTU21D;53638;51.062;5.804;2023-12-20T08:54:31;5.81;118.99
66726;HTU21D;53638;51.062;5.804;2023-12-20T08:57:22;5.97;118.99
66726;HTU21D;53638;51.062;5.804;2023-12-20T09:00:08;5.92;118.99
66726;HTU21D;53638;51.062;5.804;2023-12-20T09:02:37;6.04;118.99
66726;HTU21D;53638;51.062;5.804;2023-12-20T09:05:03;6.05;118.99
66726;HTU21D;53638;51.062;5.804;2023-12-20T09:07:29;6.02;118.99
66726;HTU21D;53638;51.062;5.804;2023-12-20T09:10:12;5.99;118.99
66726;HTU21D;53638;51.062;5.804;2023-12-20T09:12:38;6.11;118.99
66726;HTU21D;53638;51.062;5.804;2023-12-20T09:15:06;6.07;118.99
66726;HTU21D;53638;51.062;5.804;2023-12-20T09:17:35;6.13;118.99
66726;HTU21D;53638;51.062;5.804;2023-12-20T09:20:01;6.20;118.99
66726;HTU21D;53638;51.062;5.804;2023-12-20T09:22:28;6.19;118.99
66726;HTU21D;53638;51.062;5.804;2023-12-20T09:24:54;6.21;118.99
66726;HTU21D;53638;51.062;5.804;2023-12-20T09:27:29;6.22;118.99
66726;HTU21D;53638;51.062;5.804;2023-12-20T09:30:07;6.22;118.99
66726;HTU21D;53638;51.062;5.804;2023-12-20T09:32:34;6.14;118.99
66726;HTU21D;53638;51.062;5.804;2023-12-20T09:35:00;6.23;118.99
66726;HTU21D;53638;51.062;5.804;2023-12-20T09:37:27;6.29;118.99
66726;HTU21D;53638;51.062;5.804;2023-12-20T09:40:09;6.35;118.99
66726;HTU21D;53638;51.062;5.804;2023-12-20T09:42:57;6.53;118.99
66726;HTU21D;53638;51.062;5.804;2023-12-20T09:45:25;6.57;118.99
66726;HTU21D;53638;51.062;5.804;2023-12-20T09:47:53;6.68;118.99
66726;HTU21D;53638;51.062;5.804;2023-12-20T09:50:32;6.86;118.99
66726;HTU21D;53638;51.062;5.804;2023-12-20T09:53:01;7.03;118.99
66726;HTU21D;53638;51.062;5.804;2023-12-20T09:55:29;6.98;118.99
66726;HTU21D;53638;51.062;5.804;2023-12-20T09:58:52;6.75;118.99
66726;HTU21D;53638;51.062;5.804;2023-12-20T10:01:41;6.84;118.99
66726;HTU21D;53638;51.062;5.804;2023-12-20T10:05:06;6.95;118.99
66726;HTU21D;53638;51.062;5.804;2023-12-20T10:08:14;6.74;118.99
66726;HTU21D;53638;51.062;5.804;2023-12-20T10:11:21;6.88;118.99
66726;HTU21D;53638;51.062;5.804;2023-12-20T10:14:41;6.96;118.99
66726;HTU21D;53638;51.062;5.804;2023-12-20T10:21:18;7.57;118.99
66726;HTU21D;53638;51.062;5.804;2023-12-20T10:24:28;7.48;118.99
66726;HTU21D;53638;51.062;5.804;2023-12-20T10:27:40;7.49;118.99
66726;HTU21D;53638;51.062;5.804;2023-12-20T10:31:34;7.57;118.99
66726;HTU21D;53638;51.062;5.804;2023-12-20T10:37:41;7.57;118.99
66726;HTU21D;53638;51.062;5.804;2023-12-20T10:45:47;7.67;118.99
66726;HTU21D;53638;51.062;5.804;2023-12-20T10:49:13;7.64;118.99
66726;HTU21D;53638;51.062;5.804;2023-12-20T10:52:49;7.90;118.99
66726;HTU21D;53638;51.062;5.804;2023-12-20T10:56:02;7.84;118.99
66726;HTU21D;53638;51.062;5.804;2023-12-20T10:59:39;7.81;118.99
66726;HTU21D;53638;51.062;5.804;2023-12-20T11:10:54;7.50;118.99
66726;HTU21D;53638;51.062;5.804;2023-12-20T11:13:31;7.53;118.99
66726;HTU21D;53638;51.062;5.804;2023-12-20T11:16:02;7.57;118.99
66726;HTU21D;53638;51.062;5.804;2023-12-20T11:18:32;7.64;118.99
66726;HTU21D;53638;51.062;5.804;2023-12-20T11:21:37;7.47;118.99
66726;HTU21D;53638;51.062;5.804;2023-12-20T11:24:31;7.63;118.99
66726;HTU21D;53638;51.062;5.804;2023-12-20T11:28:12;7.72;118.99
66726;HTU21D;53638;51.062;5.804;2023-12-20T11:30:58;7.57;118.99
66726;HTU21D;53638;51.062;5.804;2023-12-20T11:33:48;7.60;118.99
66726;HTU21D;53638;51.062;5.804;2023-12-20T11:37:36;7.55;118.99
66726;HTU21D;53638;51.062;5.804;2023-12-20T11:40:47;7.61;118.99
66726;HTU21D;53638;51.062;5.804;2023-12-20T11:44:29;7.70;118.99
66726;HTU21D;53638;51.062;5.804;2023-12-20T11:47:58;7.57;118.99
66726;HTU21D;53638;51.062;5.804;2023-12-20T11:50:41;7.59;118.99
66726;HTU21D;53638;51.062;5.804;2023-12-20T11:54:07;7.45;118.99
66726;HTU21D;53638;51.062;5.804;2023-12-20T11:57:44;7.30;118.99
66726;HTU21D;53638;51.062;5.804;2023-12-20T12:00:51;7.52;118.99
66726;HTU21D;53638;51.062;5.804;2023-12-20T12:06:50;7.24;118.99
66726;HTU21D;53638;51.062;5.804;2023-12-20T12:09:21;7.12;118.99
66726;HTU21D;53638;51.062;5.804;2023-12-20T12:12:16;7.13;118.99
66726;HTU21D;53638;51.062;5.804;2023-12-20T12:19:25;7.07;118.99
66726;HTU21D;53638;51.062;5.804;2023-12-20T12:22:40;7.15;118.99
66726;HTU21D;53638;51.062;5.804;2023-12-20T12:29:21;7.11;118.99
66726;HTU21D;53638;51.062;5.804;2023-12-20T12:31:55;7.14;118.99
66726;HTU21D;53638;51.062;5.804;2023-12-20T12:34:29;7.13;118.99
66726;HTU21D;53638;51.062;5.804;2023-12-20T12:37:55;7.20;118.99
66726;HTU21D;53638;51.062;5.804;2023-12-20T12:40:21;7.19;118.99
66726;HTU21D;53638;51.062;5.804;2023-12-20T12:42:47;7.23;118.99
66726;HTU21D;53638;51.062;5.804;2023-12-20T12:45:15;7.34;118.99
66726;HTU21D;53638;51.062;5.804;2023-12-20T12:47:42;7.49;118.99
66726;HTU21D;53638;51.062;5.804;2023-12-20T12:50:08;7.50;118.99
66726;HTU21D;53638;51.062;5.804;2023-12-20T12:52:34;7.70;118.99
66726;HTU21D;53638;51.062;5.804;2023-12-20T12:55:10;7.63;118.99
66726;HTU21D;53638;51.062;5.804;2023-12-20T12:57:47;7.55;118.99
66726;HTU21D;53638;51.062;5.804;2023-12-20T13:00:20;7.44;118.99
66726;HTU21D;53638;51.062;5.804;2023-12-20T13:02:50;7.47;118.99
66726;HTU21D;53638;51.062;5.804;2023-12-20T13:05:16;7.52;118.99
66726;HTU21D;53638;51.062;5.804;2023-12-20T13:07:43;7.38;118.99
66726;HTU21D;53638;51.062;5.804;2023-12-20T13:10:11;7.40;118.99
66726;HTU21D;53638;51.062;5.804;2023-12-20T13:12:37;7.45;118.99
66726;HTU21D;53638;51.062;5.804;2023-12-20T13:15:03;7.38;118.99
66726;HTU21D;53638;51.062;5.804;2023-12-20T13:17:30;7.34;118.99
66726;HTU21D;53638;51.062;5.804;2023-12-20T13:19:56;7.37;118.99
66726;HTU21D;53638;51.062;5.804;2023-12-20T13:22:22;7.40;118.99
66726;HTU21D;53638;51.062;5.804;2023-12-20T13:24:47;7.30;118.99
66726;HTU21D;53638;51.062;5.804;2023-12-20T13:27:13;7.31;118.99
66726;HTU21D;53638;51.062;5.804;2023-12-20T13:29:39;7.25;118.99
66726;HTU21D;53638;51.062;5.804;2023-12-20T13:32:06;7.22;118.99
66726;HTU21D;53638;51.062;5.804;2023-12-20T13:34:32;7.23;118.99
66726;HTU21D;53638;51.062;5.804;2023-12-20T13:37:23;7.26;118.99
66726;HTU21D;53638;51.062;5.804;2023-12-20T13:43:05;7.23;118.99
66726;HTU21D;53638;51.062;5.804;2023-12-20T13:45:40;7.38;118.99
66726;HTU21D;53638;51.062;5.804;2023-12-20T13:48:07;7.46;118.99
66726;HTU21D;53638;51.062;5.804;2023-12-20T13:50:33;7.40;118.99
66726;HTU21D;53638;51.062;5.804;2023-12-20T13:52:59;7.45;118.99
66726;HTU21D;53638;51.062;5.804;2023-12-20T13:55:26;7.69;118.99
66726;HTU21D;53638;51.062;5.804;2023-12-20T13:57:53;7.68;118.99
66726;HTU21D;53638;51.062;5.804;2023-12-20T14:00:19;7.63;118.99
66726;HTU21D;53638;51.062;5.804;2023-12-20T14:02:46;7.59;118.99
66726;HTU21D;53638;51.062;5.804;2023-12-20T14:05:29;7.60;118.99
66726;HTU21D;53638;51.062;5.804;2023-12-20T14:07:55;7.59;118.99
66726;HTU21D;53638;51.062;5.804;2023-12-20T14:10:44;7.46;118.99
66726;HTU21D;53638;51.062;5.804;2023-12-20T14:13:11;7.61;118.99
66726;HTU21D;53638;51.062;5.804;2023-12-20T14:15:40;7.58;118.99
66726;HTU21D;53638;51.062;5.804;2023-12-20T14:18:08;7.49;118.99
66726;HTU21D;53638;51.062;5.804;2023-12-20T14:20:41;7.56;118.99
66726;HTU21D;53638;51.062;5.804;2023-12-20T14:23:11;7.49;118.99
66726;HTU21D;53638;51.062;5.804;2023-12-20T14:25:37;7.48;118.99
66726;HTU21D;53638;51.062;5.804;2023-12-20T14:28:13;7.71;118.99
66726;HTU21D;53638;51.062;5.804;2023-12-20T14:30:40;7.60;118.99
66726;HTU21D;53638;51.062;5.804;2023-12-20T14:33:13;7.61;118.99
66726;HTU21D;53638;51.062;5.804;2023-12-20T14:35:42;7.63;118.99
66726;HTU21D;53638;51.062;5.804;2023-12-20T14:38:17;7.81;118.99
66726;HTU21D;53638;51.062;5.804;2023-12-20T14:40:49;7.82;118.99
66726;HTU21D;53638;51.062;5.804;2023-12-20T14:44:02;7.83;118.99
66726;HTU21D;53638;51.062;5.804;2023-12-20T14:46:51;7.76;118.99
66726;HTU21D;53638;51.062;5.804;2023-12-20T14:50:13;7.75;118.99
66726;HTU21D;53638;51.062;5.804;2023-12-20T14:53:08;7.70;118.99
66726;HTU21D;53638;51.062;5.804;2023-12-20T14:55:40;7.81;118.99
66726;HTU21D;53638;51.062;5.804;2023-12-20T14:58:32;7.84;118.99
66726;HTU21D;53638;51.062;5.804;2023-12-20T15:01:25;7.74;118.99
66726;HTU21D;53638;51.062;5.804;2023-12-20T15:04:39;7.72;118.99
66726;HTU21D;53638;51.062;5.804;2023-12-20T15:07:12;7.77;118.99
66726;HTU21D;53638;51.062;5.804;2023-12-20T15:09:43;7.77;118.99
66726;HTU21D;53638;51.062;5.804;2023-12-20T15:13:15;7.71;118.99
66726;HTU21D;53638;51.062;5.804;2023-12-20T15:15:44;7.81;118.99
66726;HTU21D;53638;51.062;5.804;2023-12-20T15:19:09;7.82;118.99
66726;HTU21D;53638;51.062;5.804;2023-12-20T15:25:06;7.77;118.99
66726;HTU21D;53638;51.062;5.804;2023-12-20T15:28:35;7.85;118.99
66726;HTU21D;53638;51.062;5.804;2023-12-20T15:31:53;7.83;118.99
66726;HTU21D;53638;51.062;5.804;2023-12-20T15:34:53;7.78;118.99
66726;HTU21D;53638;51.062;5.804;2023-12-20T15:38:20;7.87;118.99
66726;HTU21D;53638;51.062;5.804;2023-12-20T15:41:24;7.82;118.99
66726;HTU21D;53638;51.062;5.804;2023-12-20T15:44:13;7.90;118.99
66726;HTU21D;53638;51.062;5.804;2023-12-20T15:48:00;7.88;118.99
66726;HTU21D;53638;51.062;5.804;2023-12-20T15:51:11;7.86;118.99
66726;HTU21D;53638;51.062;5.804;2023-12-20T15:54:24;7.92;118.99
66726;HTU21D;53638;51.062;5.804;2023-12-20T16:01:02;7.85;118.99
66726;HTU21D;53638;51.062;5.804;2023-12-20T16:04:23;7.91;118.99
66726;HTU21D;53638;51.062;5.804;2023-12-20T16:07:26;7.96;118.99
66726;HTU21D;53638;51.062;5.804;2023-12-20T16:10:17;7.85;118.99
66726;HTU21D;53638;51.062;5.804;2023-12-20T16:13:19;7.91;118.99
66726;HTU21D;53638;51.062;5.804;2023-12-20T16:19:49;7.97;118.99
66726;HTU21D;53638;51.062;5.804;2023-12-20T16:22:45;7.92;118.99
66726;HTU21D;53638;51.062;5.804;2023-12-20T16:26:01;7.96;118.99
66726;HTU21D;53638;51.062;5.804;2023-12-20T16:28:52;7.98;118.99
66726;HTU21D;53638;51.062;5.804;2023-12-20T16:32:01;8.00;118.99
66726;HTU21D;53638;51.062;5.804;2023-12-20T16:35:11;8.04;118.99
66726;HTU21D;53638;51.062;5.804;2023-12-20T16:42:34;8.00;118.99
66726;HTU21D;53638;51.062;5.804;2023-12-20T16:44:34;7.94;118.99
66726;HTU21D;53638;51.062;5.804;2023-12-20T16:47:57;7.78;118.99
66726;HTU21D;53638;51.062;5.804;2023-12-20T16:51:08;7.78;118.99
66726;HTU21D;53638;51.062;5.804;2023-12-20T16:55:13;7.73;118.99
66726;HTU21D;53638;51.062;5.804;2023-12-20T16:58:13;7.74;118.99
66726;HTU21D;53638;51.062;5.804;2023-12-20T17:00:47;7.87;118.99